sensor_id;sensor_type;location;lat;lon;timestamp;pressure;altitude;pressure_sealevel;temperature;humidity
56719;BME280;42597;40.636;0.278;2023-04-25T00:01:46;97097.94;;;21.27;54.15
56719;BME280;42597;40.636;0.278;2023-04-25T00:04:12;97106.41;;;20.86;53.74
56719;BME280;42597;40.636;0.278;2023-04-25T00:06:38;97102.50;;;19.88;49.94
56719;BME280;42597;40.636;0.278;2023-04-25T00:09:06;97103.09;;;20.37;53.63
56719;BME280;42597;40.636;0.278;2023-04-25T00:11:36;97098.31;;;21.02;55.01
56719;BME280;42597;40.636;0.278;2023-04-25T00:14:04;97086.94;;;21.27;54.05
56719;BME280;42597;40.636;0.278;2023-04-25T00:16:30;97092.38;;;21.31;54.13
56719;BME280;42597;40.636;0.278;2023-04-25T00:18:58;97093.91;;;21.35;53.91
56719;BME280;42597;40.636;0.278;2023-04-25T00:21:24;97090.00;;;21.33;53.43
56719;BME280;42597;40.636;0.278;2023-04-25T00:23:52;97096.00;;;19.75;53.25
56719;BME280;42597;40.636;0.278;2023-04-25T00:26:18;97088.03;;;20.83;55.09
56719;BME280;42597;40.636;0.278;2023-04-25T00:28:43;97084.13;;;21.07;54.39
56719;BME280;42597;40.636;0.278;2023-04-25T00:31:09;97080.69;;;21.27;53.94
56719;BME280;42597;40.636;0.278;2023-04-25T00:33:35;97080.59;;;21.30;53.62
56719;BME280;42597;40.636;0.278;2023-04-25T00:36:01;97087.06;;;20.93;52.38
56719;BME280;42597;40.636;0.278;2023-04-25T00:38:26;97084.72;;;21.18;53.61
56719;BME280;42597;40.636;0.278;2023-04-25T00:40:52;97083.78;;;21.29;53.22
56719;BME280;42597;40.636;0.278;2023-04-25T00:43:18;97082.28;;;21.24;53.63
56719;BME280;42597;40.636;0.278;2023-04-25T00:45:47;97078.19;;;21.36;53.26
56719;BME280;42597;40.636;0.278;2023-04-25T00:48:14;97075.44;;;21.36;53.06
56719;BME280;42597;40.636;0.278;2023-04-25T00:50:40;97076.66;;;21.31;53.05
56719;BME280;42597;40.636;0.278;2023-04-25T00:53:07;97072.31;;;21.34;52.98
56719;BME280;42597;40.636;0.278;2023-04-25T00:55:35;97077.59;;;21.21;53.46
56719;BME280;42597;40.636;0.278;2023-04-25T00:58:01;97074.31;;;21.30;52.76
56719;BME280;42597;40.636;0.278;2023-04-25T01:00:27;97074.06;;;20.97;53.90
56719;BME280;42597;40.636;0.278;2023-04-25T01:02:53;97074.31;;;21.30;52.94
56719;BME280;42597;40.636;0.278;2023-04-25T01:05:19;97067.28;;;21.29;51.99
56719;BME280;42597;40.636;0.278;2023-04-25T01:07:45;97068.81;;;21.30;52.99
56719;BME280;42597;40.636;0.278;2023-04-25T01:10:10;97068.81;;;21.30;52.99
56719;BME280;42597;40.636;0.278;2023-04-25T01:12:36;97070.78;;;21.33;52.74
56719;BME280;42597;40.636;0.278;2023-04-25T01:15:02;97066.44;;;21.08;52.34
56719;BME280;42597;40.636;0.278;2023-04-25T01:17:28;97070.59;;;20.93;53.20
56719;BME280;42597;40.636;0.278;2023-04-25T01:19:54;97068.84;;;20.79;52.97
56719;BME280;42597;40.636;0.278;2023-04-25T01:22:20;97072.56;;;20.92;52.31
56719;BME280;42597;40.636;0.278;2023-04-25T01:24:46;97060.47;;;21.13;52.26
56719;BME280;42597;40.636;0.278;2023-04-25T01:27:12;97051.00;;;21.14;52.97
56719;BME280;42597;40.636;0.278;2023-04-25T01:29:38;97044.81;;;21.10;51.51
56719;BME280;42597;40.636;0.278;2023-04-25T01:32:05;97050.84;;;21.25;52.24
56719;BME280;42597;40.636;0.278;2023-04-25T01:34:31;97045.28;;;21.29;52.50
56719;BME280;42597;40.636;0.278;2023-04-25T01:36:59;97045.28;;;21.29;52.44
56719;BME280;42597;40.636;0.278;2023-04-25T01:39:25;97037.47;;;21.27;52.78
56719;BME280;42597;40.636;0.278;2023-04-25T01:41:51;97041.47;;;21.23;52.61
56719;BME280;42597;40.636;0.278;2023-04-25T01:44:16;97041.34;;;21.30;52.33
56719;BME280;42597;40.636;0.278;2023-04-25T01:46:42;97039.81;;;21.29;52.37
56719;BME280;42597;40.636;0.278;2023-04-25T01:49:08;97040.63;;;21.26;52.27
56719;BME280;42597;40.636;0.278;2023-04-25T01:51:33;97038.25;;;21.28;52.21
56719;BME280;42597;40.636;0.278;2023-04-25T01:54:00;97028.09;;;21.25;52.44
56719;BME280;42597;40.636;0.278;2023-04-25T01:56:30;97028.09;;;21.25;52.15
56719;BME280;42597;40.636;0.278;2023-04-25T01:58:56;97028.09;;;21.25;52.12
56719;BME280;42597;40.636;0.278;2023-04-25T02:01:22;97014.34;;;21.25;51.88
56719;BME280;42597;40.636;0.278;2023-04-25T02:03:48;97015.56;;;21.24;52.06
56719;BME280;42597;40.636;0.278;2023-04-25T02:06:14;97025.06;;;21.19;51.81
56719;BME280;42597;40.636;0.278;2023-04-25T02:08:39;97023.03;;;21.23;51.92
56719;BME280;42597;40.636;0.278;2023-04-25T02:11:05;97029.84;;;21.15;51.49
56719;BME280;42597;40.636;0.278;2023-04-25T02:13:31;97024.25;;;21.18;51.43
56719;BME280;42597;40.636;0.278;2023-04-25T02:15:57;97020.78;;;21.14;51.98
56719;BME280;42597;40.636;0.278;2023-04-25T02:18:22;97023.09;;;21.19;51.99
56719;BME280;42597;40.636;0.278;2023-04-25T02:20:48;97027.38;;;21.20;51.73
56719;BME280;42597;40.636;0.278;2023-04-25T02:23:15;97019.13;;;21.20;51.82
56719;BME280;42597;40.636;0.278;2023-04-25T02:25:41;97022.72;;;21.17;51.78
56719;BME280;42597;40.636;0.278;2023-04-25T02:28:06;97038.00;;;21.18;51.96
56719;BME280;42597;40.636;0.278;2023-04-25T02:30:32;97033.81;;;21.10;51.61
56719;BME280;42597;40.636;0.278;2023-04-25T02:32:58;97030.47;;;20.76;52.89
56719;BME280;42597;40.636;0.278;2023-04-25T02:35:24;97022.97;;;21.03;52.09
56719;BME280;42597;40.636;0.278;2023-04-25T02:37:50;97027.25;;;21.04;52.08
56719;BME280;42597;40.636;0.278;2023-04-25T02:40:16;97032.28;;;21.09;51.38
56719;BME280;42597;40.636;0.278;2023-04-25T02:42:42;97032.38;;;21.02;51.90
56719;BME280;42597;40.636;0.278;2023-04-25T02:45:08;97030.13;;;20.97;51.54
56719;BME280;42597;40.636;0.278;2023-04-25T02:47:34;97030.03;;;20.50;50.56
56719;BME280;42597;40.636;0.278;2023-04-25T02:50:00;97031.91;;;20.84;52.75
56719;BME280;42597;40.636;0.278;2023-04-25T02:52:26;97037.41;;;21.07;52.00
56719;BME280;42597;40.636;0.278;2023-04-25T02:54:51;97038.66;;;20.52;51.51
56719;BME280;42597;40.636;0.278;2023-04-25T02:57:17;97038.31;;;20.74;53.12
56719;BME280;42597;40.636;0.278;2023-04-25T02:59:43;97041.06;;;21.01;52.24
56719;BME280;42597;40.636;0.278;2023-04-25T03:02:09;97041.06;;;20.74;52.68
56719;BME280;42597;40.636;0.278;2023-04-25T03:04:35;97045.06;;;20.96;52.37
56719;BME280;42597;40.636;0.278;2023-04-25T03:07:01;97042.66;;;20.98;52.34
56719;BME280;42597;40.636;0.278;2023-04-25T03:09:26;97049.97;;;21.08;52.13
56719;BME280;42597;40.636;0.278;2023-04-25T03:11:52;97041.00;;;21.04;51.76
56719;BME280;42597;40.636;0.278;2023-04-25T03:14:18;97049.72;;;20.99;51.96
56719;BME280;42597;40.636;0.278;2023-04-25T03:16:44;97047.94;;;20.85;51.28
56719;BME280;42597;40.636;0.278;2023-04-25T03:19:10;97056.91;;;20.89;52.17
56719;BME280;42597;40.636;0.278;2023-04-25T03:21:36;97059.88;;;20.75;52.91
56719;BME280;42597;40.636;0.278;2023-04-25T03:24:03;97051.97;;;21.04;51.86
56719;BME280;42597;40.636;0.278;2023-04-25T03:26:30;97049.22;;;21.04;51.91
56719;BME280;42597;40.636;0.278;2023-04-25T03:28:55;97042.53;;;21.05;51.76
56719;BME280;42597;40.636;0.278;2023-04-25T03:31:21;97040.28;;;21.00;51.80
56719;BME280;42597;40.636;0.278;2023-04-25T03:33:48;97053.63;;;20.98;51.92
56719;BME280;42597;40.636;0.278;2023-04-25T03:36:13;97046.84;;;21.06;51.86
56719;BME280;42597;40.636;0.278;2023-04-25T03:38:39;97051.41;;;20.89;52.20
56719;BME280;42597;40.636;0.278;2023-04-25T03:41:07;97054.44;;;20.99;51.85
56719;BME280;42597;40.636;0.278;2023-04-25T03:43:33;97059.13;;;20.98;51.98
56719;BME280;42597;40.636;0.278;2023-04-25T03:45:58;97068.16;;;20.99;52.07
56719;BME280;42597;40.636;0.278;2023-04-25T03:48:25;97074.44;;;20.99;51.57
56719;BME280;42597;40.636;0.278;2023-04-25T03:50:52;97070.44;;;20.77;51.80
56719;BME280;42597;40.636;0.278;2023-04-25T03:53:18;97065.53;;;20.91;52.33
56719;BME280;42597;40.636;0.278;2023-04-25T03:55:44;97076.34;;;21.02;51.57
56719;BME280;42597;40.636;0.278;2023-04-25T03:58:09;97073.28;;;20.97;51.79
56719;BME280;42597;40.636;0.278;2023-04-25T04:00:35;97063.78;;;21.01;51.87
56719;BME280;42597;40.636;0.278;2023-04-25T04:03:01;97054.34;;;21.02;51.67
56719;BME280;42597;40.636;0.278;2023-04-25T04:05:27;97063.44;;;20.99;51.77
56719;BME280;42597;40.636;0.278;2023-04-25T04:07:54;97071.63;;;21.03;51.79
56719;BME280;42597;40.636;0.278;2023-04-25T04:10:20;97072.03;;;21.01;52.06
56719;BME280;42597;40.636;0.278;2023-04-25T04:12:46;97077.53;;;21.01;51.67
56719;BME280;42597;40.636;0.278;2023-04-25T04:15:12;97079.50;;;21.01;51.80
56719;BME280;42597;40.636;0.278;2023-04-25T04:17:37;97083.84;;;20.98;52.14
56719;BME280;42597;40.636;0.278;2023-04-25T04:20:04;97077.25;;;20.95;51.56
56719;BME280;42597;40.636;0.278;2023-04-25T04:22:31;97075.97;;;21.00;51.75
56719;BME280;42597;40.636;0.278;2023-04-25T04:24:56;97077.19;;;20.99;51.62
56719;BME280;42597;40.636;0.278;2023-04-25T04:27:22;97075.69;;;20.94;51.76
56719;BME280;42597;40.636;0.278;2023-04-25T04:29:48;97078.00;;;20.96;51.56
56719;BME280;42597;40.636;0.278;2023-04-25T04:32:15;97075.97;;;21.00;51.74
56719;BME280;42597;40.636;0.278;2023-04-25T04:34:41;97080.28;;;21.01;51.31
56719;BME280;42597;40.636;0.278;2023-04-25T04:37:07;97077.19;;;20.99;51.46
56719;BME280;42597;40.636;0.278;2023-04-25T04:39:33;97067.75;;;21.00;51.41
56719;BME280;42597;40.636;0.278;2023-04-25T04:41:59;97064.28;;;20.96;51.47
56719;BME280;42597;40.636;0.278;2023-04-25T04:44:27;97059.38;;;20.84;51.84
56719;BME280;42597;40.636;0.278;2023-04-25T04:46:54;97066.34;;;20.88;51.71
56719;BME280;42597;40.636;0.278;2023-04-25T04:49:20;97069.06;;;20.92;51.70
56719;BME280;42597;40.636;0.278;2023-04-25T04:51:46;97059.59;;;20.93;51.67
56719;BME280;42597;40.636;0.278;2023-04-25T04:54:13;97071.78;;;20.92;51.44
56719;BME280;42597;40.636;0.278;2023-04-25T04:56:38;97060.91;;;20.85;51.72
56719;BME280;42597;40.636;0.278;2023-04-25T04:59:04;97058.13;;;20.88;51.67
56719;BME280;42597;40.636;0.278;2023-04-25T05:01:30;97053.78;;;20.91;51.65
56719;BME280;42597;40.636;0.278;2023-04-25T05:03:56;97060.09;;;20.88;51.56
56719;BME280;42597;40.636;0.278;2023-04-25T05:06:26;97049.44;;;20.90;51.66
56719;BME280;42597;40.636;0.278;2023-04-25T05:08:54;97051.03;;;20.91;51.54
56719;BME280;42597;40.636;0.278;2023-04-25T05:11:20;97063.03;;;20.74;51.62
56719;BME280;42597;40.636;0.278;2023-04-25T05:13:46;97065.28;;;20.55;52.43
56719;BME280;42597;40.636;0.278;2023-04-25T05:16:13;97063.41;;;20.76;52.09
56719;BME280;42597;40.636;0.278;2023-04-25T05:18:39;97068.19;;;20.72;51.44
56719;BME280;42597;40.636;0.278;2023-04-25T05:21:05;97061.38;;;20.53;52.45
56719;BME280;42597;40.636;0.278;2023-04-25T05:23:32;97060.13;;;20.57;52.46
56719;BME280;42597;40.636;0.278;2023-04-25T05:25:59;97063.25;;;20.59;52.66
56719;BME280;42597;40.636;0.278;2023-04-25T05:28:25;97070.47;;;20.15;52.30
56719;BME280;42597;40.636;0.278;2023-04-25T05:30:51;97069.34;;;20.40;53.00
56719;BME280;42597;40.636;0.278;2023-04-25T05:33:16;97063.34;;;20.52;52.67
56719;BME280;42597;40.636;0.278;2023-04-25T05:35:42;97066.34;;;20.61;52.56
56719;BME280;42597;40.636;0.278;2023-04-25T05:38:08;97067.53;;;19.99;52.75
56719;BME280;42597;40.636;0.278;2023-04-25T05:40:34;97062.88;;;20.57;52.71
56719;BME280;42597;40.636;0.278;2023-04-25T05:43:00;97072.00;;;20.78;52.04
56719;BME280;42597;40.636;0.278;2023-04-25T05:45:26;97072.00;;;20.78;51.93
56719;BME280;42597;40.636;0.278;2023-04-25T05:47:52;97064.69;;;20.67;52.27
56719;BME280;42597;40.636;0.278;2023-04-25T05:50:17;97073.91;;;20.81;51.87
56719;BME280;42597;40.636;0.278;2023-04-25T05:52:43;97074.44;;;20.72;51.96
56719;BME280;42597;40.636;0.278;2023-04-25T05:55:09;97075.59;;;20.44;52.69
56719;BME280;42597;40.636;0.278;2023-04-25T05:57:35;97075.75;;;20.30;52.80
56719;BME280;42597;40.636;0.278;2023-04-25T06:00:01;97081.88;;;20.41;53.31
56719;BME280;42597;40.636;0.278;2023-04-25T06:02:27;97085.75;;;20.47;53.22
56719;BME280;42597;40.636;0.278;2023-04-25T06:04:53;97079.38;;;20.54;53.10
56719;BME280;42597;40.636;0.278;2023-04-25T06:07:19;97079.38;;;20.54;52.98
56719;BME280;42597;40.636;0.278;2023-04-25T06:09:45;97089.31;;;20.75;52.18
56719;BME280;42597;40.636;0.278;2023-04-25T06:12:11;97097.63;;;20.37;52.65
56719;BME280;42597;40.636;0.278;2023-04-25T06:14:37;97086.00;;;19.50;55.09
56719;BME280;42597;40.636;0.278;2023-04-25T06:17:03;97095.41;;;20.25;54.30
56719;BME280;42597;40.636;0.278;2023-04-25T06:19:36;97085.38;;;20.45;53.37
56719;BME280;42597;40.636;0.278;2023-04-25T06:22:02;97083.28;;;20.56;53.14
56719;BME280;42597;40.636;0.278;2023-04-25T06:24:28;97084.38;;;20.32;53.42
56719;BME280;42597;40.636;0.278;2023-04-25T06:26:54;97086.41;;;20.58;53.10
56719;BME280;42597;40.636;0.278;2023-04-25T06:29:20;97081.53;;;20.69;52.73
56719;BME280;42597;40.636;0.278;2023-04-25T06:31:46;97085.50;;;20.65;52.91
56719;BME280;42597;40.636;0.278;2023-04-25T06:34:12;97084.25;;;18.73;57.39
56719;BME280;42597;40.636;0.278;2023-04-25T06:36:38;97072.66;;;19.52;56.89
56719;BME280;42597;40.636;0.278;2023-04-25T06:39:03;97083.72;;;20.20;54.84
56719;BME280;42597;40.636;0.278;2023-04-25T06:41:30;97085.44;;;20.38;54.12
56719;BME280;42597;40.636;0.278;2023-04-25T06:43:55;97083.56;;;19.63;57.15
56719;BME280;42597;40.636;0.278;2023-04-25T06:46:21;97087.41;;;18.61;58.63
56719;BME280;42597;40.636;0.278;2023-04-25T06:48:47;97076.22;;;19.49;58.14
56719;BME280;42597;40.636;0.278;2023-04-25T06:51:12;97079.84;;;19.80;56.14
56719;BME280;42597;40.636;0.278;2023-04-25T06:53:41;97075.72;;;20.33;54.55
56719;BME280;42597;40.636;0.278;2023-04-25T06:56:06;97076.41;;;20.41;54.31
56719;BME280;42597;40.636;0.278;2023-04-25T06:58:32;97080.28;;;20.13;55.00
56719;BME280;42597;40.636;0.278;2023-04-25T07:00:58;97075.06;;;19.50;57.41
56719;BME280;42597;40.636;0.278;2023-04-25T07:03:23;97077.50;;;20.16;55.48
56719;BME280;42597;40.636;0.278;2023-04-25T07:05:50;97076.69;;;20.19;55.15
56719;BME280;42597;40.636;0.278;2023-04-25T07:08:16;97079.38;;;19.89;56.26
56719;BME280;42597;40.636;0.278;2023-04-25T07:10:42;97070.19;;;20.37;54.87
56719;BME280;42597;40.636;0.278;2023-04-25T07:13:08;97064.25;;;20.11;56.13
56719;BME280;42597;40.636;0.278;2023-04-25T07:15:34;97075.66;;;19.68;57.47
56719;BME280;42597;40.636;0.278;2023-04-25T07:18:00;97082.22;;;20.16;55.69
56719;BME280;42597;40.636;0.278;2023-04-25T07:20:25;97074.19;;;20.29;54.81
56719;BME280;42597;40.636;0.278;2023-04-25T07:22:52;97077.19;;;20.11;55.21
56719;BME280;42597;40.636;0.278;2023-04-25T07:25:19;97076.31;;;19.83;56.59
56719;BME280;42597;40.636;0.278;2023-04-25T07:27:44;97080.69;;;20.11;55.60
56719;BME280;42597;40.636;0.278;2023-04-25T07:30:10;97072.47;;;20.42;54.77
56719;BME280;42597;40.636;0.278;2023-04-25T07:32:38;97078.31;;;20.44;54.19
56719;BME280;42597;40.636;0.278;2023-04-25T07:35:04;97076.72;;;20.16;54.91
56719;BME280;42597;40.636;0.278;2023-04-25T07:37:30;97078.16;;;20.28;54.79
56719;BME280;42597;40.636;0.278;2023-04-25T07:39:55;97090.84;;;20.14;53.60
56719;BME280;42597;40.636;0.278;2023-04-25T07:42:21;97088.78;;;19.88;54.82
56719;BME280;42597;40.636;0.278;2023-04-25T07:44:47;97094.88;;;20.06;53.14
56719;BME280;42597;40.636;0.278;2023-04-25T07:47:13;97091.47;;;20.26;53.89
56719;BME280;42597;40.636;0.278;2023-04-25T07:49:39;97098.91;;;20.29;54.42
56719;BME280;42597;40.636;0.278;2023-04-25T07:52:05;97087.56;;;20.57;53.80
56719;BME280;42597;40.636;0.278;2023-04-25T07:54:32;97093.75;;;20.34;53.85
56719;BME280;42597;40.636;0.278;2023-04-25T07:56:58;97088.91;;;20.42;54.09
56719;BME280;42597;40.636;0.278;2023-04-25T07:59:24;97084.97;;;20.46;53.88
56719;BME280;42597;40.636;0.278;2023-04-25T08:01:50;97090.31;;;20.57;53.97
56719;BME280;42597;40.636;0.278;2023-04-25T08:04:16;97079.81;;;20.52;53.83
56719;BME280;42597;40.636;0.278;2023-04-25T08:06:42;97084.88;;;20.54;53.37
56719;BME280;42597;40.636;0.278;2023-04-25T08:09:08;97088.91;;;20.42;54.05
56719;BME280;42597;40.636;0.278;2023-04-25T08:11:37;97087.56;;;20.27;54.75
56719;BME280;42597;40.636;0.278;2023-04-25T08:14:03;97088.38;;;20.24;55.55
56719;BME280;42597;40.636;0.278;2023-04-25T08:16:29;97093.13;;;20.54;54.21
56719;BME280;42597;40.636;0.278;2023-04-25T08:18:55;97097.22;;;20.04;55.48
56719;BME280;42597;40.636;0.278;2023-04-25T08:21:21;97085.75;;;19.79;56.59
56719;BME280;42597;40.636;0.278;2023-04-25T08:23:46;97082.94;;;19.41;56.84
56719;BME280;42597;40.636;0.278;2023-04-25T08:26:12;97079.03;;;19.42;57.00
56719;BME280;42597;40.636;0.278;2023-04-25T08:28:38;97092.31;;;20.23;55.35
56719;BME280;42597;40.636;0.278;2023-04-25T08:31:04;97087.28;;;19.83;55.94
56719;BME280;42597;40.636;0.278;2023-04-25T08:33:29;97094.34;;;19.81;55.77
56719;BME280;42597;40.636;0.278;2023-04-25T08:35:55;97101.81;;;20.14;55.30
56719;BME280;42597;40.636;0.278;2023-04-25T08:38:21;97101.75;;;20.18;55.03
56719;BME280;42597;40.636;0.278;2023-04-25T08:40:50;97094.66;;;20.24;54.28
56719;BME280;42597;40.636;0.278;2023-04-25T08:43:20;97090.44;;;20.16;54.80
56719;BME280;42597;40.636;0.278;2023-04-25T08:45:46;97096.97;;;20.26;53.98
56719;BME280;42597;40.636;0.278;2023-04-25T08:48:14;97096.88;;;20.33;54.53
56719;BME280;42597;40.636;0.278;2023-04-25T08:51:01;97093.19;;;20.16;54.40
56719;BME280;42597;40.636;0.278;2023-04-25T08:53:29;97086.84;;;20.23;54.66
56719;BME280;42597;40.636;0.278;2023-04-25T08:55:57;97090.94;;;20.38;54.22
56719;BME280;42597;40.636;0.278;2023-04-25T08:58:23;97090.06;;;20.14;54.66
56719;BME280;42597;40.636;0.278;2023-04-25T09:00:51;97088.38;;;20.24;54.73
56719;BME280;42597;40.636;0.278;2023-04-25T09:03:17;97085.09;;;20.36;54.09
56719;BME280;42597;40.636;0.278;2023-04-25T09:05:43;97086.66;;;20.37;53.89
56719;BME280;42597;40.636;0.278;2023-04-25T09:08:09;97084.16;;;20.46;53.30
56719;BME280;42597;40.636;0.278;2023-04-25T09:10:36;97080.16;;;20.54;51.96
56719;BME280;42597;40.636;0.278;2023-04-25T09:13:14;97086.50;;;20.48;52.31
56719;BME280;42597;40.636;0.278;2023-04-25T09:15:54;97081.66;;;20.62;53.10
56719;BME280;42597;40.636;0.278;2023-04-25T09:18:34;97084.47;;;20.55;52.62
56719;BME280;42597;40.636;0.278;2023-04-25T09:21:09;97091.16;;;20.54;51.18
56719;BME280;42597;40.636;0.278;2023-04-25T09:23:44;97080.03;;;20.65;51.71
56719;BME280;42597;40.636;0.278;2023-04-25T09:26:14;97079.25;;;20.64;52.66
56719;BME280;42597;40.636;0.278;2023-04-25T09:28:39;97083.75;;;20.51;51.45
56719;BME280;42597;40.636;0.278;2023-04-25T09:31:05;97080.34;;;20.70;52.65
56719;BME280;42597;40.636;0.278;2023-04-25T09:33:32;97082.25;;;20.74;51.84
56719;BME280;42597;40.636;0.278;2023-04-25T09:38:39;97079.94;;;20.72;51.22
56719;BME280;42597;40.636;0.278;2023-04-25T09:41:06;97089.19;;;20.82;51.12
56719;BME280;42597;40.636;0.278;2023-04-25T09:43:32;97092.06;;;20.75;49.77
56719;BME280;42597;40.636;0.278;2023-04-25T09:45:58;97077.38;;;20.85;51.12
56719;BME280;42597;40.636;0.278;2023-04-25T09:48:27;97079.84;;;20.79;50.71
56719;BME280;42597;40.636;0.278;2023-04-25T09:51:06;97087.91;;;20.90;48.04
56719;BME280;42597;40.636;0.278;2023-04-25T09:53:45;97085.56;;;21.15;49.08
56719;BME280;42597;40.636;0.278;2023-04-25T09:56:18;97078.72;;;21.00;48.61
56719;BME280;42597;40.636;0.278;2023-04-25T09:58:47;97068.09;;;21.26;46.73
56719;BME280;42597;40.636;0.278;2023-04-25T10:01:12;97065.19;;;21.13;46.26
56719;BME280;42597;40.636;0.278;2023-04-25T10:03:39;97070.47;;;21.27;45.92
56719;BME280;42597;40.636;0.278;2023-04-25T10:06:12;97070.41;;;21.31;45.40
56719;BME280;42597;40.636;0.278;2023-04-25T10:08:39;97058.34;;;21.48;48.31
56719;BME280;42597;40.636;0.278;2023-04-25T10:11:07;97048.78;;;21.33;46.80
56719;BME280;42597;40.636;0.278;2023-04-25T10:13:34;97053.09;;;21.77;42.94
56719;BME280;42597;40.636;0.278;2023-04-25T10:16:03;97051.69;;;21.89;45.84
56719;BME280;42597;40.636;0.278;2023-04-25T10:18:30;97047.34;;;22.11;42.00
56719;BME280;42597;40.636;0.278;2023-04-25T10:21:01;97045.06;;;22.06;42.12
56719;BME280;42597;40.636;0.278;2023-04-25T10:23:30;97038.38;;;22.07;46.66
56719;BME280;42597;40.636;0.278;2023-04-25T10:25:56;97038.38;;;21.87;43.02
56719;BME280;42597;40.636;0.278;2023-04-25T10:28:23;97044.66;;;21.88;47.20
56719;BME280;42597;40.636;0.278;2023-04-25T10:31:02;97035.75;;;22.00;46.58
56719;BME280;42597;40.636;0.278;2023-04-25T10:33:35;97027.16;;;22.54;39.97
56719;BME280;42597;40.636;0.278;2023-04-25T10:36:12;97019.94;;;22.60;40.63
56719;BME280;42597;40.636;0.278;2023-04-25T10:38:39;97017.06;;;22.84;41.15
56719;BME280;42597;40.636;0.278;2023-04-25T10:41:07;97021.81;;;22.47;42.14
56719;BME280;42597;40.636;0.278;2023-04-25T10:43:48;97020.25;;;22.46;42.68
56719;BME280;42597;40.636;0.278;2023-04-25T10:46:18;97015.13;;;22.64;43.14
56719;BME280;42597;40.636;0.278;2023-04-25T10:48:51;97006.56;;;22.95;39.88
56719;BME280;42597;40.636;0.278;2023-04-25T10:51:19;96998.09;;;22.86;40.73
56719;BME280;42597;40.636;0.278;2023-04-25T10:53:47;96997.84;;;22.64;42.26
56719;BME280;42597;40.636;0.278;2023-04-25T10:56:19;96988.00;;;22.79;43.72
56719;BME280;42597;40.636;0.278;2023-04-25T10:58:49;96990.72;;;22.99;42.90
56719;BME280;42597;40.636;0.278;2023-04-25T11:01:19;96976.22;;;23.11;38.95
56719;BME280;42597;40.636;0.278;2023-04-25T11:03:45;96971.38;;;23.90;36.41
56719;BME280;42597;40.636;0.278;2023-04-25T11:06:28;96955.72;;;23.29;41.89
56719;BME280;42597;40.636;0.278;2023-04-25T11:08:54;96966.44;;;23.39;40.77
56719;BME280;42597;40.636;0.278;2023-04-25T11:11:20;96968.44;;;23.97;41.03
56719;BME280;42597;40.636;0.278;2023-04-25T11:13:49;96974.34;;;23.83;40.86
56719;BME280;42597;40.636;0.278;2023-04-25T11:16:16;96976.03;;;23.64;41.33
56719;BME280;42597;40.636;0.278;2023-04-25T11:18:45;96970.44;;;23.68;40.38
56719;BME280;42597;40.636;0.278;2023-04-25T11:21:11;96962.22;;;23.93;40.61
56719;BME280;42597;40.636;0.278;2023-04-25T11:23:37;96964.59;;;23.66;42.08
56719;BME280;42597;40.636;0.278;2023-04-25T11:26:03;96955.94;;;23.63;41.56
56719;BME280;42597;40.636;0.278;2023-04-25T11:28:29;96968.72;;;23.57;42.07
56719;BME280;42597;40.636;0.278;2023-04-25T11:30:56;96961.44;;;23.63;47.59
56719;BME280;42597;40.636;0.278;2023-04-25T11:33:25;96970.94;;;23.62;47.74
56719;BME280;42597;40.636;0.278;2023-04-25T11:35:55;96978.59;;;23.42;48.35
56719;BME280;42597;40.636;0.278;2023-04-25T11:38:24;96980.06;;;23.76;47.69
56719;BME280;42597;40.636;0.278;2023-04-25T11:40:52;96977.66;;;23.78;49.61
56719;BME280;42597;40.636;0.278;2023-04-25T11:43:20;96975.69;;;23.91;52.31
56719;BME280;42597;40.636;0.278;2023-04-25T11:45:49;96979.44;;;23.84;51.83
56719;BME280;42597;40.636;0.278;2023-04-25T11:48:17;96976.63;;;23.72;50.63
56719;BME280;42597;40.636;0.278;2023-04-25T11:50:43;96974.44;;;23.50;50.80
56719;BME280;42597;40.636;0.278;2023-04-25T11:53:09;96965.44;;;23.62;49.00
56719;BME280;42597;40.636;0.278;2023-04-25T11:55:36;96963.06;;;23.48;48.95
56719;BME280;42597;40.636;0.278;2023-04-25T11:58:03;96962.41;;;23.44;46.74
56719;BME280;42597;40.636;0.278;2023-04-25T12:00:29;96964.75;;;23.58;46.75
56719;BME280;42597;40.636;0.278;2023-04-25T12:02:57;96968.53;;;23.64;46.51
56719;BME280;42597;40.636;0.278;2023-04-25T12:05:29;96960.78;;;23.59;46.37
56719;BME280;42597;40.636;0.278;2023-04-25T12:07:55;96949.44;;;23.28;46.78
56719;BME280;42597;40.636;0.278;2023-04-25T12:10:21;96955.00;;;23.70;46.12
56719;BME280;42597;40.636;0.278;2023-04-25T12:12:49;96948.88;;;23.62;46.39
56719;BME280;42597;40.636;0.278;2023-04-25T12:15:17;96948.75;;;23.82;46.39
56719;BME280;42597;40.636;0.278;2023-04-25T12:17:50;96954.31;;;23.66;45.63
56719;BME280;42597;40.636;0.278;2023-04-25T12:20:18;96948.41;;;23.51;46.50
56719;BME280;42597;40.636;0.278;2023-04-25T12:22:47;96952.19;;;23.57;46.88
56719;BME280;42597;40.636;0.278;2023-04-25T12:25:13;96955.47;;;23.52;47.23
56719;BME280;42597;40.636;0.278;2023-04-25T12:28:21;96952.69;;;23.69;46.24
56719;BME280;42597;40.636;0.278;2023-04-25T12:33:25;96950.53;;;23.60;46.51
56719;BME280;42597;40.636;0.278;2023-04-25T12:35:50;96953.72;;;23.58;46.98
56719;BME280;42597;40.636;0.278;2023-04-25T12:38:27;96945.28;;;23.66;46.75
56719;BME280;42597;40.636;0.278;2023-04-25T12:40:54;96948.97;;;23.59;47.70
56719;BME280;42597;40.636;0.278;2023-04-25T12:43:20;96941.38;;;23.63;46.85
56719;BME280;42597;40.636;0.278;2023-04-25T12:45:54;96943.28;;;23.37;47.54
56719;BME280;42597;40.636;0.278;2023-04-25T12:48:21;96942.22;;;23.76;46.69
56719;BME280;42597;40.636;0.278;2023-04-25T12:50:48;96943.47;;;23.59;47.08
56719;BME280;42597;40.636;0.278;2023-04-25T12:53:21;96941.16;;;23.57;46.35
56719;BME280;42597;40.636;0.278;2023-04-25T12:55:47;96946.22;;;23.30;46.80
56719;BME280;42597;40.636;0.278;2023-04-25T12:58:14;96955.25;;;23.59;45.59
56719;BME280;42597;40.636;0.278;2023-04-25T13:00:40;96954.69;;;23.81;44.55
56719;BME280;42597;40.636;0.278;2023-04-25T13:03:06;96949.09;;;23.84;44.75
56719;BME280;42597;40.636;0.278;2023-04-25T13:05:32;96961.97;;;23.75;44.04